Alvin, SC

8:19 PM EDT on September 22, 2014 (GMT -0400)
Santee Circle | Change Station
CLOSE
Current Station
Personal Weather Station
Location: Moncks Corner, SC
Elevation: 79 ft
Nearby Weather Stations
Active Advisory: Flash Flood Warning Active Notice: Local Storm Report

Elev 79 ft 33.23 °N, 79.97 °W | Updated 9 minutes ago

Rain
Rain
65.5 °F
Feels Like 65.5 °F
N
2.0
Wind Variable Wind from East
Gusts 6.0 mph

Today
High -- | Low -- °F
--% Chance of Precip.
Yesterday
High -- | Low -- °F
Precip. -- in
7:07 AM 7:15 PM
Waning Crescent, 1% visible
Pressure 30.05 in
Visibility 7.0 miles
Clouds
Dew Point 65 °F
Humidity 97%
Rainfall 1.12 in
Snow Depth Not available.
UV Not available.
Pollen 8.00 out of 12
Ozone Good
PM2.5 Good
Flu Activity Not available.
METAR KMKS 230015Z AUTO 10003KT 7SM -RA 20/20 A3005 RMK AO2 P0001

More Conditions Fewer Conditions

Pressure 30.05 in
Visibility 7.0 miles
Clouds
Dew Point 65 °F
Humidity 97%
Rainfall 1.12 in
Snow Depth Not available.
UV Not available.
Pollen 8.00 out of 12
Ozone Good
PM2.5 Good
Flu Activity Not available.
METAR KMKS 230015Z AUTO 10003KT 7SM -RA 20/20 A3005 RMK AO2 P0001

More Conditions Fewer Conditions

10-Day Weather Forecast

Almanac

Astronomy

Sep. 22, 2014 Rise Set
Actual Time 7:07 AM EDT 7:15 PM EDT
Civil Twilight 6:42 AM EDT 7:40 PM EDT
Nautical Twilight 6:13 AM EDT 8:09 PM EDT
Astronomical Twilight 5:44 AM EDT 8:38 PM EDT
Moon 5:37 AM EDT (9/22) 6:20 PM EDT (9/22)
Length of Visible Light 12h 58m
Length of Day
12h 08m
Tomorrow will be 2m 3s shorter.
Waning Crescent, 1% of the Moon is Illuminated
Today
Waning Crescent
Sep 24
New
Oct 1
First Quarter
Oct 8
Full
Oct 15
Last Quarter

Today's Extremes

State Highs State Lows

Community

WunderPhotos

Upload Photos

1,755,562 photos uploaded!

Nearby

Air Quality

  Air Quality AQ Index Pollutant
Yesterday Good
PM2.5
Yesterday Good
OZONE
Current Good
PM2.5
Current Good
OZONE
Monday Good
OZONE
Tuesday Good
OZONE

Snow Depth

Station Depth Elevation
No new snow has been reported.

Earthquake Activity

City Distance Mag. Time & Date
New Ellenton, South Carolina 109 miles 2.6 4:38 PM EDT
2014-09-19
Minimum magnitude displayed is 2.5.

Coastal Water Temperatures

Place Temperature
No Stations Reporting

Nearby Weather Stations